sensor_id;sensor_type;location;lat;lon;timestamp;P1;durP1;ratioP1;P2;durP2;ratioP2
48268;SDS011;34088;52.232;5.196;2023-04-25T00:01:54;16.75;;;4.93;;
48268;SDS011;34088;52.232;5.196;2023-04-25T00:04:21;19.60;;;5.30;;
48268;SDS011;34088;52.232;5.196;2023-04-25T00:06:47;17.00;;;4.38;;
48268;SDS011;34088;52.232;5.196;2023-04-25T00:09:13;19.00;;;4.50;;
48268;SDS011;34088;52.232;5.196;2023-04-25T00:11:39;19.08;;;5.13;;
48268;SDS011;34088;52.232;5.196;2023-04-25T00:14:05;15.82;;;4.00;;
48268;SDS011;34088;52.232;5.196;2023-04-25T00:16:31;19.08;;;4.47;;
48268;SDS011;34088;52.232;5.196;2023-04-25T00:31:43;19.83;;;4.50;;
48268;SDS011;34088;52.232;5.196;2023-04-25T00:36:34;19.00;;;4.47;;
48268;SDS011;34088;52.232;5.196;2023-04-25T00:39:00;21.95;;;5.78;;
48268;SDS011;34088;52.232;5.196;2023-04-25T00:41:26;23.85;;;5.10;;
48268;SDS011;34088;52.232;5.196;2023-04-25T00:43:52;22.58;;;4.90;;
48268;SDS011;34088;52.232;5.196;2023-04-25T00:46:19;22.88;;;4.63;;
48268;SDS011;34088;52.232;5.196;2023-04-25T00:48:44;22.20;;;5.20;;
48268;SDS011;34088;52.232;5.196;2023-04-25T00:51:10;17.88;;;4.90;;
48268;SDS011;34088;52.232;5.196;2023-04-25T00:53:39;21.83;;;5.53;;
48268;SDS011;34088;52.232;5.196;2023-04-25T00:56:05;25.90;;;4.95;;
48268;SDS011;34088;52.232;5.196;2023-04-25T01:00:56;20.70;;;4.80;;
48268;SDS011;34088;52.232;5.196;2023-04-25T01:03:22;18.90;;;4.55;;
48268;SDS011;34088;52.232;5.196;2023-04-25T01:05:49;19.58;;;4.68;;
48268;SDS011;34088;52.232;5.196;2023-04-25T01:08:15;22.45;;;4.53;;
48268;SDS011;34088;52.232;5.196;2023-04-25T01:10:41;20.15;;;4.78;;
48268;SDS011;34088;52.232;5.196;2023-04-25T01:13:07;20.85;;;4.15;;
48268;SDS011;34088;52.232;5.196;2023-04-25T01:15:32;23.38;;;4.57;;
48268;SDS011;34088;52.232;5.196;2023-04-25T01:20:25;20.02;;;4.60;;
48268;SDS011;34088;52.232;5.196;2023-04-25T01:22:53;20.75;;;4.43;;
48268;SDS011;34088;52.232;5.196;2023-04-25T01:25:20;15.77;;;3.95;;
48268;SDS011;34088;52.232;5.196;2023-04-25T01:27:46;20.98;;;4.30;;
48268;SDS011;34088;52.232;5.196;2023-04-25T01:30:12;17.35;;;3.72;;
48268;SDS011;34088;52.232;5.196;2023-04-25T01:32:38;23.95;;;4.53;;
48268;SDS011;34088;52.232;5.196;2023-04-25T01:35:06;18.85;;;4.10;;
48268;SDS011;34088;52.232;5.196;2023-04-25T01:37:37;23.00;;;4.05;;
48268;SDS011;34088;52.232;5.196;2023-04-25T01:40:06;18.67;;;4.72;;
48268;SDS011;34088;52.232;5.196;2023-04-25T01:42:33;16.77;;;3.53;;
48268;SDS011;34088;52.232;5.196;2023-04-25T01:44:59;21.73;;;4.10;;
48268;SDS011;34088;52.232;5.196;2023-04-25T01:47:25;17.23;;;3.53;;
48268;SDS011;34088;52.232;5.196;2023-04-25T01:49:51;21.77;;;4.10;;
48268;SDS011;34088;52.232;5.196;2023-04-25T01:52:16;18.38;;;4.05;;
48268;SDS011;34088;52.232;5.196;2023-04-25T01:59:35;17.37;;;4.07;;
48268;SDS011;34088;52.232;5.196;2023-04-25T02:02:01;22.10;;;4.20;;
48268;SDS011;34088;52.232;5.196;2023-04-25T02:04:28;23.55;;;4.15;;
48268;SDS011;34088;52.232;5.196;2023-04-25T02:06:57;22.42;;;3.90;;
48268;SDS011;34088;52.232;5.196;2023-04-25T02:09:23;18.33;;;3.88;;
48268;SDS011;34088;52.232;5.196;2023-04-25T02:14:14;21.92;;;3.92;;
48268;SDS011;34088;52.232;5.196;2023-04-25T02:16:40;15.98;;;3.65;;
48268;SDS011;34088;52.232;5.196;2023-04-25T02:19:05;21.27;;;4.13;;
48268;SDS011;34088;52.232;5.196;2023-04-25T02:21:31;22.77;;;4.38;;
48268;SDS011;34088;52.232;5.196;2023-04-25T02:23:57;16.98;;;3.67;;
48268;SDS011;34088;52.232;5.196;2023-04-25T02:26:23;21.20;;;4.20;;
48268;SDS011;34088;52.232;5.196;2023-04-25T02:28:49;16.05;;;4.20;;
48268;SDS011;34088;52.232;5.196;2023-04-25T02:31:15;20.58;;;3.72;;
48268;SDS011;34088;52.232;5.196;2023-04-25T02:33:41;18.33;;;4.07;;
48268;SDS011;34088;52.232;5.196;2023-04-25T02:36:06;22.75;;;4.15;;
48268;SDS011;34088;52.232;5.196;2023-04-25T02:38:32;23.90;;;4.80;;
48268;SDS011;34088;52.232;5.196;2023-04-25T02:40:58;22.95;;;4.43;;
48268;SDS011;34088;52.232;5.196;2023-04-25T02:43:23;21.02;;;4.30;;
48268;SDS011;34088;52.232;5.196;2023-04-25T02:45:49;16.55;;;4.00;;
48268;SDS011;34088;52.232;5.196;2023-04-25T02:48:14;17.92;;;4.28;;
48268;SDS011;34088;52.232;5.196;2023-04-25T02:50:40;23.10;;;4.50;;
48268;SDS011;34088;52.232;5.196;2023-04-25T02:53:05;19.50;;;4.13;;
48268;SDS011;34088;52.232;5.196;2023-04-25T02:55:31;20.40;;;4.20;;
48268;SDS011;34088;52.232;5.196;2023-04-25T03:00:22;23.50;;;4.22;;
48268;SDS011;34088;52.232;5.196;2023-04-25T03:02:47;24.67;;;4.25;;
48268;SDS011;34088;52.232;5.196;2023-04-25T03:05:13;25.50;;;4.82;;
48268;SDS011;34088;52.232;5.196;2023-04-25T03:07:39;18.50;;;4.13;;
48268;SDS011;34088;52.232;5.196;2023-04-25T03:10:05;19.80;;;3.97;;
48268;SDS011;34088;52.232;5.196;2023-04-25T03:12:32;18.98;;;3.97;;
48268;SDS011;34088;52.232;5.196;2023-04-25T03:14:57;25.20;;;3.53;;
48268;SDS011;34088;52.232;5.196;2023-04-25T03:17:23;16.05;;;3.58;;
48268;SDS011;34088;52.232;5.196;2023-04-25T03:19:49;16.40;;;3.58;;
48268;SDS011;34088;52.232;5.196;2023-04-25T03:22:14;20.05;;;3.63;;
48268;SDS011;34088;52.232;5.196;2023-04-25T03:24:40;17.23;;;3.72;;
48268;SDS011;34088;52.232;5.196;2023-04-25T03:27:05;17.20;;;3.53;;
48268;SDS011;34088;52.232;5.196;2023-04-25T03:29:31;18.10;;;3.47;;
48268;SDS011;34088;52.232;5.196;2023-04-25T03:31:56;16.63;;;3.30;;
48268;SDS011;34088;52.232;5.196;2023-04-25T03:34:22;16.48;;;3.42;;
48268;SDS011;34088;52.232;5.196;2023-04-25T03:36:48;16.58;;;3.15;;
48268;SDS011;34088;52.232;5.196;2023-04-25T03:39:14;17.48;;;3.47;;
48268;SDS011;34088;52.232;5.196;2023-04-25T03:41:40;15.23;;;2.75;;
48268;SDS011;34088;52.232;5.196;2023-04-25T03:46:31;15.15;;;3.45;;
48268;SDS011;34088;52.232;5.196;2023-04-25T03:48:56;15.30;;;3.05;;
48268;SDS011;34088;52.232;5.196;2023-04-25T03:51:22;12.77;;;2.60;;
48268;SDS011;34088;52.232;5.196;2023-04-25T03:56:13;15.05;;;3.13;;
48268;SDS011;34088;52.232;5.196;2023-04-25T03:58:39;10.50;;;2.47;;
48268;SDS011;34088;52.232;5.196;2023-04-25T04:03:32;11.55;;;2.45;;
48268;SDS011;34088;52.232;5.196;2023-04-25T04:06:04;13.20;;;2.88;;
48268;SDS011;34088;52.232;5.196;2023-04-25T04:08:30;10.68;;;2.53;;
48268;SDS011;34088;52.232;5.196;2023-04-25T04:10:57;14.98;;;3.28;;
48268;SDS011;34088;52.232;5.196;2023-04-25T04:13:23;13.70;;;3.10;;
48268;SDS011;34088;52.232;5.196;2023-04-25T04:15:48;15.20;;;3.17;;
48268;SDS011;34088;52.232;5.196;2023-04-25T04:18:14;10.68;;;2.15;;
48268;SDS011;34088;52.232;5.196;2023-04-25T04:20:40;12.30;;;2.85;;
48268;SDS011;34088;52.232;5.196;2023-04-25T04:25:31;15.50;;;3.35;;
48268;SDS011;34088;52.232;5.196;2023-04-25T04:27:56;11.68;;;2.60;;
48268;SDS011;34088;52.232;5.196;2023-04-25T04:30:22;14.70;;;3.05;;
48268;SDS011;34088;52.232;5.196;2023-04-25T04:32:54;8.70;;;2.50;;
48268;SDS011;34088;52.232;5.196;2023-04-25T04:35:20;14.98;;;2.80;;
48268;SDS011;34088;52.232;5.196;2023-04-25T04:37:46;16.55;;;2.47;;
48268;SDS011;34088;52.232;5.196;2023-04-25T04:40:12;13.15;;;2.25;;
48268;SDS011;34088;52.232;5.196;2023-04-25T04:42:40;11.98;;;2.30;;
48268;SDS011;34088;52.232;5.196;2023-04-25T04:45:06;13.35;;;2.22;;
48268;SDS011;34088;52.232;5.196;2023-04-25T04:47:34;9.80;;;2.30;;
48268;SDS011;34088;52.232;5.196;2023-04-25T04:50:01;13.45;;;2.78;;
48268;SDS011;34088;52.232;5.196;2023-04-25T04:52:33;8.32;;;2.40;;
48268;SDS011;34088;52.232;5.196;2023-04-25T04:54:59;11.02;;;2.25;;
48268;SDS011;34088;52.232;5.196;2023-04-25T04:57:24;11.73;;;2.33;;
48268;SDS011;34088;52.232;5.196;2023-04-25T04:59:50;14.43;;;2.28;;
48268;SDS011;34088;52.232;5.196;2023-04-25T05:02:16;13.75;;;2.47;;
48268;SDS011;34088;52.232;5.196;2023-04-25T05:04:41;9.15;;;2.38;;
48268;SDS011;34088;52.232;5.196;2023-04-25T05:07:07;8.63;;;1.95;;
48268;SDS011;34088;52.232;5.196;2023-04-25T05:09:33;11.35;;;2.20;;
48268;SDS011;34088;52.232;5.196;2023-04-25T05:11:58;8.13;;;2.03;;
48268;SDS011;34088;52.232;5.196;2023-04-25T05:16:49;8.32;;;1.98;;
48268;SDS011;34088;52.232;5.196;2023-04-25T05:19:15;8.63;;;2.10;;
48268;SDS011;34088;52.232;5.196;2023-04-25T05:24:08;7.45;;;2.05;;
48268;SDS011;34088;52.232;5.196;2023-04-25T05:26:33;11.88;;;2.30;;
48268;SDS011;34088;52.232;5.196;2023-04-25T05:31:24;11.18;;;2.78;;
48268;SDS011;34088;52.232;5.196;2023-04-25T05:33:50;10.23;;;2.70;;
48268;SDS011;34088;52.232;5.196;2023-04-25T05:36:16;14.00;;;2.78;;
48268;SDS011;34088;52.232;5.196;2023-04-25T05:38:43;14.23;;;2.30;;
48268;SDS011;34088;52.232;5.196;2023-04-25T05:41:09;14.30;;;2.33;;
48268;SDS011;34088;52.232;5.196;2023-04-25T05:43:34;9.02;;;1.92;;
48268;SDS011;34088;52.232;5.196;2023-04-25T05:46:00;10.75;;;2.10;;
48268;SDS011;34088;52.232;5.196;2023-04-25T05:50:51;11.27;;;2.15;;
48268;SDS011;34088;52.232;5.196;2023-04-25T05:53:17;15.30;;;2.38;;
48268;SDS011;34088;52.232;5.196;2023-04-25T05:55:43;13.75;;;2.85;;
48268;SDS011;34088;52.232;5.196;2023-04-25T05:58:09;13.38;;;2.65;;
48268;SDS011;34088;52.232;5.196;2023-04-25T06:03:00;10.73;;;2.72;;
48268;SDS011;34088;52.232;5.196;2023-04-25T06:05:26;12.65;;;2.35;;
48268;SDS011;34088;52.232;5.196;2023-04-25T06:10:17;10.40;;;2.72;;
48268;SDS011;34088;52.232;5.196;2023-04-25T06:12:43;13.70;;;2.72;;
48268;SDS011;34088;52.232;5.196;2023-04-25T06:15:09;14.38;;;2.25;;
48268;SDS011;34088;52.232;5.196;2023-04-25T06:17:35;11.07;;;2.50;;
48268;SDS011;34088;52.232;5.196;2023-04-25T06:20:00;14.63;;;2.80;;
48268;SDS011;34088;52.232;5.196;2023-04-25T06:22:27;12.23;;;2.75;;
48268;SDS011;34088;52.232;5.196;2023-04-25T06:24:52;12.07;;;2.17;;
48268;SDS011;34088;52.232;5.196;2023-04-25T06:27:18;16.05;;;2.55;;
48268;SDS011;34088;52.232;5.196;2023-04-25T06:29:43;10.32;;;2.38;;
48268;SDS011;34088;52.232;5.196;2023-04-25T06:32:09;6.60;;;1.98;;
48268;SDS011;34088;52.232;5.196;2023-04-25T06:34:34;10.88;;;2.10;;
48268;SDS011;34088;52.232;5.196;2023-04-25T06:39:25;9.20;;;2.63;;
48268;SDS011;34088;52.232;5.196;2023-04-25T06:41:51;9.88;;;2.50;;
48268;SDS011;34088;52.232;5.196;2023-04-25T06:44:16;14.30;;;3.00;;
48268;SDS011;34088;52.232;5.196;2023-04-25T06:46:42;11.38;;;2.58;;
48268;SDS011;34088;52.232;5.196;2023-04-25T06:49:07;13.18;;;2.33;;
48268;SDS011;34088;52.232;5.196;2023-04-25T06:51:33;12.13;;;2.47;;
48268;SDS011;34088;52.232;5.196;2023-04-25T06:53:58;13.52;;;2.63;;
48268;SDS011;34088;52.232;5.196;2023-04-25T06:56:24;11.40;;;2.33;;
48268;SDS011;34088;52.232;5.196;2023-04-25T06:58:50;8.70;;;2.03;;
48268;SDS011;34088;52.232;5.196;2023-04-25T07:01:15;12.73;;;2.40;;
48268;SDS011;34088;52.232;5.196;2023-04-25T07:03:41;14.32;;;2.47;;
48268;SDS011;34088;52.232;5.196;2023-04-25T07:06:07;12.93;;;2.42;;
48268;SDS011;34088;52.232;5.196;2023-04-25T07:08:32;11.40;;;2.30;;
48268;SDS011;34088;52.232;5.196;2023-04-25T07:10:58;14.38;;;2.42;;
48268;SDS011;34088;52.232;5.196;2023-04-25T07:13:23;12.85;;;2.10;;
48268;SDS011;34088;52.232;5.196;2023-04-25T07:15:49;10.02;;;2.08;;
48268;SDS011;34088;52.232;5.196;2023-04-25T07:18:14;9.98;;;1.80;;
48268;SDS011;34088;52.232;5.196;2023-04-25T07:20:40;12.07;;;2.42;;
48268;SDS011;34088;52.232;5.196;2023-04-25T07:23:06;12.13;;;1.88;;
48268;SDS011;34088;52.232;5.196;2023-04-25T07:25:32;13.45;;;2.45;;
48268;SDS011;34088;52.232;5.196;2023-04-25T07:27:57;9.82;;;1.80;;
48268;SDS011;34088;52.232;5.196;2023-04-25T07:30:23;11.73;;;1.95;;
48268;SDS011;34088;52.232;5.196;2023-04-25T07:32:49;12.23;;;2.05;;
48268;SDS011;34088;52.232;5.196;2023-04-25T07:35:15;9.52;;;2.13;;
48268;SDS011;34088;52.232;5.196;2023-04-25T07:37:42;15.32;;;2.42;;
48268;SDS011;34088;52.232;5.196;2023-04-25T07:40:07;14.35;;;2.50;;
48268;SDS011;34088;52.232;5.196;2023-04-25T07:42:34;11.63;;;1.88;;
48268;SDS011;34088;52.232;5.196;2023-04-25T07:45:00;7.93;;;1.80;;
48268;SDS011;34088;52.232;5.196;2023-04-25T07:47:26;10.52;;;1.88;;
48268;SDS011;34088;52.232;5.196;2023-04-25T07:49:51;12.15;;;2.17;;
48268;SDS011;34088;52.232;5.196;2023-04-25T07:52:17;10.88;;;2.03;;
48268;SDS011;34088;52.232;5.196;2023-04-25T07:54:42;8.63;;;1.58;;
48268;SDS011;34088;52.232;5.196;2023-04-25T07:59:33;7.65;;;1.52;;
48268;SDS011;34088;52.232;5.196;2023-04-25T08:01:59;7.32;;;1.13;;
48268;SDS011;34088;52.232;5.196;2023-04-25T08:04:25;11.77;;;1.85;;
48268;SDS011;34088;52.232;5.196;2023-04-25T08:06:51;6.57;;;1.70;;
48268;SDS011;34088;52.232;5.196;2023-04-25T08:09:18;8.40;;;1.83;;
48268;SDS011;34088;52.232;5.196;2023-04-25T08:11:44;7.78;;;1.67;;
48268;SDS011;34088;52.232;5.196;2023-04-25T08:14:11;8.32;;;1.70;;
48268;SDS011;34088;52.232;5.196;2023-04-25T08:16:37;10.48;;;1.63;;
48268;SDS011;34088;52.232;5.196;2023-04-25T08:19:02;12.27;;;2.13;;
48268;SDS011;34088;52.232;5.196;2023-04-25T08:21:28;11.57;;;2.00;;
48268;SDS011;34088;52.232;5.196;2023-04-25T08:23:53;11.13;;;2.05;;
48268;SDS011;34088;52.232;5.196;2023-04-25T08:28:45;13.48;;;1.95;;
48268;SDS011;34088;52.232;5.196;2023-04-25T08:31:11;12.65;;;2.42;;
48268;SDS011;34088;52.232;5.196;2023-04-25T08:33:36;10.77;;;1.75;;
48268;SDS011;34088;52.232;5.196;2023-04-25T08:36:02;12.20;;;2.03;;
48268;SDS011;34088;52.232;5.196;2023-04-25T08:38:28;6.55;;;1.30;;
48268;SDS011;34088;52.232;5.196;2023-04-25T08:40:53;8.80;;;1.45;;
48268;SDS011;34088;52.232;5.196;2023-04-25T08:43:20;6.13;;;1.20;;
48268;SDS011;34088;52.232;5.196;2023-04-25T08:45:46;7.78;;;1.48;;
48268;SDS011;34088;52.232;5.196;2023-04-25T08:48:13;6.40;;;1.85;;
48268;SDS011;34088;52.232;5.196;2023-04-25T08:50:40;7.30;;;1.48;;
48268;SDS011;34088;52.232;5.196;2023-04-25T08:53:17;8.20;;;1.73;;
48268;SDS011;34088;52.232;5.196;2023-04-25T08:55:47;6.28;;;1.30;;
48268;SDS011;34088;52.232;5.196;2023-04-25T08:58:13;7.82;;;1.45;;
48268;SDS011;34088;52.232;5.196;2023-04-25T09:00:39;7.18;;;1.35;;
48268;SDS011;34088;52.232;5.196;2023-04-25T09:03:05;11.40;;;1.77;;
48268;SDS011;34088;52.232;5.196;2023-04-25T09:05:32;9.00;;;1.55;;
48268;SDS011;34088;52.232;5.196;2023-04-25T09:07:57;7.78;;;1.33;;
48268;SDS011;34088;52.232;5.196;2023-04-25T09:10:23;9.13;;;1.88;;
48268;SDS011;34088;52.232;5.196;2023-04-25T09:13:05;9.75;;;1.92;;
48268;SDS011;34088;52.232;5.196;2023-04-25T09:15:31;8.10;;;1.70;;
48268;SDS011;34088;52.232;5.196;2023-04-25T09:17:58;7.60;;;1.60;;
48268;SDS011;34088;52.232;5.196;2023-04-25T09:20:24;9.15;;;1.92;;
48268;SDS011;34088;52.232;5.196;2023-04-25T09:23:00;7.43;;;1.83;;
48268;SDS011;34088;52.232;5.196;2023-04-25T09:25:27;6.97;;;1.48;;
48268;SDS011;34088;52.232;5.196;2023-04-25T09:28:00;8.43;;;1.70;;
48268;SDS011;34088;52.232;5.196;2023-04-25T09:30:29;7.50;;;1.20;;
48268;SDS011;34088;52.232;5.196;2023-04-25T09:32:56;6.45;;;1.40;;
48268;SDS011;34088;52.232;5.196;2023-04-25T09:35:24;5.93;;;1.50;;
48268;SDS011;34088;52.232;5.196;2023-04-25T09:37:52;6.00;;;1.40;;
48268;SDS011;34088;52.232;5.196;2023-04-25T09:40:18;5.13;;;1.35;;
48268;SDS011;34088;52.232;5.196;2023-04-25T09:42:43;8.52;;;1.33;;
48268;SDS011;34088;52.232;5.196;2023-04-25T09:45:09;5.38;;;1.30;;
48268;SDS011;34088;52.232;5.196;2023-04-25T09:47:39;6.55;;;1.60;;
48268;SDS011;34088;52.232;5.196;2023-04-25T09:50:13;6.88;;;1.40;;
48268;SDS011;34088;52.232;5.196;2023-04-25T09:52:40;6.95;;;1.40;;
48268;SDS011;34088;52.232;5.196;2023-04-25T09:55:06;9.60;;;1.35;;
48268;SDS011;34088;52.232;5.196;2023-04-25T09:57:32;10.00;;;1.38;;
48268;SDS011;34088;52.232;5.196;2023-04-25T09:59:58;7.75;;;1.38;;
48268;SDS011;34088;52.232;5.196;2023-04-25T10:02:26;8.05;;;1.55;;
48268;SDS011;34088;52.232;5.196;2023-04-25T10:04:55;9.43;;;1.58;;
48268;SDS011;34088;52.232;5.196;2023-04-25T10:07:25;7.35;;;1.40;;
48268;SDS011;34088;52.232;5.196;2023-04-25T10:10:00;13.23;;;2.05;;
48268;SDS011;34088;52.232;5.196;2023-04-25T10:12:27;6.53;;;1.70;;
48268;SDS011;34088;52.232;5.196;2023-04-25T10:14:54;8.38;;;1.30;;
48268;SDS011;34088;52.232;5.196;2023-04-25T10:17:20;5.93;;;2.05;;
48268;SDS011;34088;52.232;5.196;2023-04-25T10:19:46;8.90;;;1.55;;
48268;SDS011;34088;52.232;5.196;2023-04-25T10:22:14;5.53;;;1.38;;
48268;SDS011;34088;52.232;5.196;2023-04-25T10:24:43;5.60;;;1.10;;
48268;SDS011;34088;52.232;5.196;2023-04-25T10:27:11;6.70;;;1.77;;
48268;SDS011;34088;52.232;5.196;2023-04-25T10:29:37;5.78;;;1.27;;
48268;SDS011;34088;52.232;5.196;2023-04-25T10:32:02;6.80;;;1.30;;
48268;SDS011;34088;52.232;5.196;2023-04-25T10:34:38;4.18;;;1.17;;
48268;SDS011;34088;52.232;5.196;2023-04-25T10:39:30;4.67;;;1.47;;
48268;SDS011;34088;52.232;5.196;2023-04-25T10:41:58;7.65;;;1.63;;
48268;SDS011;34088;52.232;5.196;2023-04-25T10:44:28;8.50;;;1.73;;
48268;SDS011;34088;52.232;5.196;2023-04-25T10:46:55;6.95;;;1.38;;
48268;SDS011;34088;52.232;5.196;2023-04-25T10:49:28;8.40;;;1.65;;
48268;SDS011;34088;52.232;5.196;2023-04-25T11:00:18;6.38;;;1.30;;
48268;SDS011;34088;52.232;5.196;2023-04-25T11:02:47;7.95;;;1.50;;
48268;SDS011;34088;52.232;5.196;2023-04-25T11:05:23;7.00;;;1.33;;
48268;SDS011;34088;52.232;5.196;2023-04-25T11:07:54;4.97;;;1.30;;
48268;SDS011;34088;52.232;5.196;2023-04-25T11:10:25;6.35;;;1.40;;
48268;SDS011;34088;52.232;5.196;2023-04-25T11:12:52;4.90;;;1.30;;
48268;SDS011;34088;52.232;5.196;2023-04-25T11:15:17;2.88;;;1.17;;
48268;SDS011;34088;52.232;5.196;2023-04-25T11:17:43;9.52;;;1.23;;
48268;SDS011;34088;52.232;5.196;2023-04-25T11:20:11;5.72;;;1.40;;
48268;SDS011;34088;52.232;5.196;2023-04-25T11:22:39;6.10;;;1.40;;
48268;SDS011;34088;52.232;5.196;2023-04-25T11:25:08;5.50;;;1.40;;
48268;SDS011;34088;52.232;5.196;2023-04-25T11:27:36;5.75;;;1.30;;
48268;SDS011;34088;52.232;5.196;2023-04-25T11:30:23;5.72;;;1.38;;
48268;SDS011;34088;52.232;5.196;2023-04-25T11:32:49;7.68;;;1.48;;
48268;SDS011;34088;52.232;5.196;2023-04-25T11:35:16;8.90;;;1.67;;
48268;SDS011;34088;52.232;5.196;2023-04-25T11:37:43;8.98;;;1.67;;
48268;SDS011;34088;52.232;5.196;2023-04-25T11:40:09;7.30;;;1.40;;
48268;SDS011;34088;52.232;5.196;2023-04-25T11:42:43;6.60;;;1.38;;
48268;SDS011;34088;52.232;5.196;2023-04-25T11:45:10;6.28;;;1.30;;
48268;SDS011;34088;52.232;5.196;2023-04-25T11:47:36;8.52;;;1.40;;
48268;SDS011;34088;52.232;5.196;2023-04-25T11:50:03;5.45;;;1.30;;
48268;SDS011;34088;52.232;5.196;2023-04-25T11:52:43;5.43;;;1.20;;
48268;SDS011;34088;52.232;5.196;2023-04-25T11:55:19;6.75;;;1.58;;
48268;SDS011;34088;52.232;5.196;2023-04-25T11:57:46;8.55;;;1.50;;
48268;SDS011;34088;52.232;5.196;2023-04-25T12:00:15;10.23;;;1.85;;
48268;SDS011;34088;52.232;5.196;2023-04-25T12:02:55;9.25;;;1.67;;
48268;SDS011;34088;52.232;5.196;2023-04-25T12:05:26;7.45;;;1.42;;
48268;SDS011;34088;52.232;5.196;2023-04-25T12:07:53;8.05;;;1.85;;
48268;SDS011;34088;52.232;5.196;2023-04-25T12:10:19;7.00;;;1.65;;
48268;SDS011;34088;52.232;5.196;2023-04-25T12:12:45;6.65;;;1.70;;
48268;SDS011;34088;52.232;5.196;2023-04-25T12:15:12;4.35;;;1.20;;
48268;SDS011;34088;52.232;5.196;2023-04-25T12:17:48;5.15;;;1.40;;
48268;SDS011;34088;52.232;5.196;2023-04-25T12:20:16;5.63;;;1.23;;
48268;SDS011;34088;52.232;5.196;2023-04-25T12:22:44;8.20;;;1.45;;
48268;SDS011;34088;52.232;5.196;2023-04-25T12:25:10;6.35;;;1.50;;
48268;SDS011;34088;52.232;5.196;2023-04-25T12:27:37;5.30;;;1.20;;
48268;SDS011;34088;52.232;5.196;2023-04-25T12:30:05;7.00;;;1.20;;
48268;SDS011;34088;52.232;5.196;2023-04-25T12:32:32;5.95;;;1.33;;
48268;SDS011;34088;52.232;5.196;2023-04-25T12:34:57;6.90;;;1.20;;
48268;SDS011;34088;52.232;5.196;2023-04-25T12:37:23;8.40;;;1.60;;
48268;SDS011;34088;52.232;5.196;2023-04-25T12:39:48;4.05;;;1.13;;
48268;SDS011;34088;52.232;5.196;2023-04-25T12:42:14;8.85;;;1.52;;
48268;SDS011;34088;52.232;5.196;2023-04-25T12:44:39;3.42;;;0.95;;
48268;SDS011;34088;52.232;5.196;2023-04-25T12:47:05;6.72;;;1.10;;
48268;SDS011;34088;52.232;5.196;2023-04-25T12:49:31;7.22;;;1.10;;
48268;SDS011;34088;52.232;5.196;2023-04-25T12:51:57;4.90;;;1.25;;
48268;SDS011;34088;52.232;5.196;2023-04-25T12:54:23;7.57;;;1.58;;
48268;SDS011;34088;52.232;5.196;2023-04-25T12:56:49;6.93;;;1.25;;
48268;SDS011;34088;52.232;5.196;2023-04-25T12:59:15;5.47;;;1.27;;
48268;SDS011;34088;52.232;5.196;2023-04-25T13:01:41;4.43;;;1.55;;
48268;SDS011;34088;52.232;5.196;2023-04-25T13:04:06;7.03;;;1.73;;
48268;SDS011;34088;52.232;5.196;2023-04-25T13:06:32;6.05;;;1.58;;
48268;SDS011;34088;52.232;5.196;2023-04-25T13:08:57;10.00;;;1.48;;
48268;SDS011;34088;52.232;5.196;2023-04-25T13:11:23;7.50;;;1.42;;
48268;SDS011;34088;52.232;5.196;2023-04-25T13:13:48;3.97;;;1.40;;
48268;SDS011;34088;52.232;5.196;2023-04-25T13:16:14;7.90;;;1.35;;
48268;SDS011;34088;52.232;5.196;2023-04-25T13:18:40;10.43;;;1.83;;
48268;SDS011;34088;52.232;5.196;2023-04-25T13:21:05;8.15;;;2.35;;
48268;SDS011;34088;52.232;5.196;2023-04-25T13:23:31;9.35;;;1.52;;
48268;SDS011;34088;52.232;5.196;2023-04-25T13:25:56;4.25;;;1.40;;
48268;SDS011;34088;52.232;5.196;2023-04-25T13:28:23;6.20;;;1.70;;
48268;SDS011;34088;52.232;5.196;2023-04-25T13:30:49;5.22;;;1.45;;
48268;SDS011;34088;52.232;5.196;2023-04-25T13:33:16;10.10;;;1.65;;
48268;SDS011;34088;52.232;5.196;2023-04-25T13:35:41;6.80;;;1.77;;
48268;SDS011;34088;52.232;5.196;2023-04-25T13:38:07;7.75;;;1.70;;
48268;SDS011;34088;52.232;5.196;2023-04-25T13:40:34;6.72;;;1.40;;
48268;SDS011;34088;52.232;5.196;2023-04-25T13:42:59;5.35;;;1.42;;
48268;SDS011;34088;52.232;5.196;2023-04-25T13:45:26;9.43;;;1.45;;
48268;SDS011;34088;52.232;5.196;2023-04-25T13:47:51;5.05;;;1.33;;
48268;SDS011;34088;52.232;5.196;2023-04-25T13:50:17;4.82;;;1.48;;
48268;SDS011;34088;52.232;5.196;2023-04-25T13:52:43;7.43;;;1.63;;
48268;SDS011;34088;52.232;5.196;2023-04-25T13:55:08;4.50;;;1.73;;
48268;SDS011;34088;52.232;5.196;2023-04-25T13:57:35;5.70;;;1.30;;
48268;SDS011;34088;52.232;5.196;2023-04-25T14:00:01;5.32;;;1.67;;
48268;SDS011;34088;52.232;5.196;2023-04-25T14:02:32;4.43;;;1.23;;
48268;SDS011;34088;52.232;5.196;2023-04-25T14:04:57;4.88;;;1.63;;
48268;SDS011;34088;52.232;5.196;2023-04-25T14:07:23;5.85;;;1.85;;
48268;SDS011;34088;52.232;5.196;2023-04-25T14:09:48;5.13;;;1.38;;
48268;SDS011;34088;52.232;5.196;2023-04-25T14:12:15;10.25;;;1.75;;
48268;SDS011;34088;52.232;5.196;2023-04-25T14:14:41;5.95;;;1.80;;
48268;SDS011;34088;52.232;5.196;2023-04-25T14:17:07;6.53;;;1.60;;
48268;SDS011;34088;52.232;5.196;2023-04-25T14:19:33;6.95;;;1.83;;
48268;SDS011;34088;52.232;5.196;2023-04-25T14:21:59;6.68;;;1.80;;
48268;SDS011;34088;52.232;5.196;2023-04-25T14:24:24;9.88;;;1.65;;
48268;SDS011;34088;52.232;5.196;2023-04-25T14:26:50;6.35;;;1.50;;
48268;SDS011;34088;52.232;5.196;2023-04-25T14:29:16;6.03;;;1.25;;
48268;SDS011;34088;52.232;5.196;2023-04-25T14:31:41;6.93;;;1.50;;
48268;SDS011;34088;52.232;5.196;2023-04-25T14:34:07;3.65;;;1.30;;
48268;SDS011;34088;52.232;5.196;2023-04-25T14:36:33;5.28;;;1.35;;
48268;SDS011;34088;52.232;5.196;2023-04-25T14:39:00;7.25;;;1.40;;
48268;SDS011;34088;52.232;5.196;2023-04-25T14:41:25;4.45;;;1.10;;
48268;SDS011;34088;52.232;5.196;2023-04-25T14:43:52;6.25;;;1.83;;
48268;SDS011;34088;52.232;5.196;2023-04-25T14:46:21;5.85;;;1.40;;
48268;SDS011;34088;52.232;5.196;2023-04-25T14:48:48;5.63;;;1.95;;
48268;SDS011;34088;52.232;5.196;2023-04-25T14:51:13;6.30;;;1.75;;
48268;SDS011;34088;52.232;5.196;2023-04-25T14:53:39;6.72;;;1.33;;
48268;SDS011;34088;52.232;5.196;2023-04-25T14:56:05;6.45;;;1.60;;
48268;SDS011;34088;52.232;5.196;2023-04-25T14:58:32;9.77;;;1.63;;
48268;SDS011;34088;52.232;5.196;2023-04-25T15:00:58;5.20;;;1.20;;
48268;SDS011;34088;52.232;5.196;2023-04-25T15:03:24;3.10;;;1.33;;
48268;SDS011;34088;52.232;5.196;2023-04-25T15:05:49;5.90;;;1.38;;
48268;SDS011;34088;52.232;5.196;2023-04-25T15:08:15;5.72;;;1.70;;
48268;SDS011;34088;52.232;5.196;2023-04-25T15:10:40;6.18;;;1.58;;
48268;SDS011;34088;52.232;5.196;2023-04-25T15:13:06;4.93;;;1.30;;
48268;SDS011;34088;52.232;5.196;2023-04-25T15:15:32;7.65;;;1.42;;
48268;SDS011;34088;52.232;5.196;2023-04-25T15:17:58;3.75;;;1.13;;
48268;SDS011;34088;52.232;5.196;2023-04-25T15:20:23;9.30;;;1.70;;
48268;SDS011;34088;52.232;5.196;2023-04-25T15:22:49;7.32;;;1.80;;
48268;SDS011;34088;52.232;5.196;2023-04-25T15:25:15;6.75;;;1.60;;
48268;SDS011;34088;52.232;5.196;2023-04-25T15:27:45;4.88;;;1.60;;
48268;SDS011;34088;52.232;5.196;2023-04-25T15:30:13;4.72;;;1.52;;
48268;SDS011;34088;52.232;5.196;2023-04-25T15:32:43;9.75;;;1.80;;
48268;SDS011;34088;52.232;5.196;2023-04-25T15:35:12;7.18;;;1.33;;
48268;SDS011;34088;52.232;5.196;2023-04-25T15:37:38;6.55;;;1.55;;
48268;SDS011;34088;52.232;5.196;2023-04-25T15:40:08;8.07;;;2.15;;
48268;SDS011;34088;52.232;5.196;2023-04-25T15:42:36;8.30;;;1.50;;
48268;SDS011;34088;52.232;5.196;2023-04-25T15:45:03;7.20;;;1.60;;
48268;SDS011;34088;52.232;5.196;2023-04-25T15:47:30;6.10;;;1.48;;
48268;SDS011;34088;52.232;5.196;2023-04-25T15:49:56;6.57;;;1.55;;